sensor_id;sensor_type;location;lat;lon;timestamp;temperature;humidity
3086;DHT22;52812;48.960;9.108;2023-04-29T00:01:08;10.20;99.90
3086;DHT22;52812;48.960;9.108;2023-04-29T00:03:34;10.20;99.90
3086;DHT22;52812;48.960;9.108;2023-04-29T00:06:00;10.20;99.90
3086;DHT22;52812;48.960;9.108;2023-04-29T00:08:26;10.00;99.90
3086;DHT22;52812;48.960;9.108;2023-04-29T00:10:52;10.00;99.90
3086;DHT22;52812;48.960;9.108;2023-04-29T00:13:17;9.90;99.90
3086;DHT22;52812;48.960;9.108;2023-04-29T00:15:43;9.90;99.90
3086;DHT22;52812;48.960;9.108;2023-04-29T00:18:09;9.90;99.90
3086;DHT22;52812;48.960;9.108;2023-04-29T00:20:35;9.90;99.90
3086;DHT22;52812;48.960;9.108;2023-04-29T00:23:02;9.90;99.90
3086;DHT22;52812;48.960;9.108;2023-04-29T00:25:28;9.90;99.90
3086;DHT22;52812;48.960;9.108;2023-04-29T00:27:53;9.90;99.90
3086;DHT22;52812;48.960;9.108;2023-04-29T00:30:19;10.00;99.90
3086;DHT22;52812;48.960;9.108;2023-04-29T00:32:44;10.10;99.90
3086;DHT22;52812;48.960;9.108;2023-04-29T00:35:11;10.20;99.90
3086;DHT22;52812;48.960;9.108;2023-04-29T00:37:36;10.30;99.90
3086;DHT22;52812;48.960;9.108;2023-04-29T00:40:02;10.40;99.90
3086;DHT22;52812;48.960;9.108;2023-04-29T00:42:30;10.30;99.90
3086;DHT22;52812;48.960;9.108;2023-04-29T00:44:58;10.30;99.90
3086;DHT22;52812;48.960;9.108;2023-04-29T00:47:23;10.30;99.90
3086;DHT22;52812;48.960;9.108;2023-04-29T00:49:49;10.30;99.90
3086;DHT22;52812;48.960;9.108;2023-04-29T00:52:16;10.20;99.90
3086;DHT22;52812;48.960;9.108;2023-04-29T00:54:43;10.10;99.90
3086;DHT22;52812;48.960;9.108;2023-04-29T00:57:09;10.00;99.90
3086;DHT22;52812;48.960;9.108;2023-04-29T00:59:34;9.90;99.90
3086;DHT22;52812;48.960;9.108;2023-04-29T01:02:01;9.80;99.90
3086;DHT22;52812;48.960;9.108;2023-04-29T01:04:31;9.70;99.90
3086;DHT22;52812;48.960;9.108;2023-04-29T01:07:18;9.60;99.90
3086;DHT22;52812;48.960;9.108;2023-04-29T01:15:29;9.50;99.90
3086;DHT22;52812;48.960;9.108;2023-04-29T01:18:19;9.50;99.90
3086;DHT22;52812;48.960;9.108;2023-04-29T01:20:45;9.50;99.90
3086;DHT22;52812;48.960;9.108;2023-04-29T01:23:11;9.50;99.90
3086;DHT22;52812;48.960;9.108;2023-04-29T01:25:37;9.50;99.90
3086;DHT22;52812;48.960;9.108;2023-04-29T01:31:14;9.80;99.90
3086;DHT22;52812;48.960;9.108;2023-04-29T01:36:52;9.90;99.90
3086;DHT22;52812;48.960;9.108;2023-04-29T01:39:59;9.90;99.90
3086;DHT22;52812;48.960;9.108;2023-04-29T01:42:23;9.90;99.90
3086;DHT22;52812;48.960;9.108;2023-04-29T01:44:52;9.80;99.90
3086;DHT22;52812;48.960;9.108;2023-04-29T01:47:19;9.80;99.90
3086;DHT22;52812;48.960;9.108;2023-04-29T01:49:45;9.70;99.90
3086;DHT22;52812;48.960;9.108;2023-04-29T01:52:11;9.70;99.90
3086;DHT22;52812;48.960;9.108;2023-04-29T01:54:37;9.60;99.90
3086;DHT22;52812;48.960;9.108;2023-04-29T01:57:03;9.60;99.90
3086;DHT22;52812;48.960;9.108;2023-04-29T01:59:29;9.60;99.90
3086;DHT22;52812;48.960;9.108;2023-04-29T02:01:55;9.60;99.90
3086;DHT22;52812;48.960;9.108;2023-04-29T02:04:24;9.50;99.90
3086;DHT22;52812;48.960;9.108;2023-04-29T02:06:50;9.50;99.90
3086;DHT22;52812;48.960;9.108;2023-04-29T02:09:17;9.40;99.90
3086;DHT22;52812;48.960;9.108;2023-04-29T02:11:42;9.50;99.90
3086;DHT22;52812;48.960;9.108;2023-04-29T02:14:08;9.50;99.90
3086;DHT22;52812;48.960;9.108;2023-04-29T02:16:33;9.50;99.90
3086;DHT22;52812;48.960;9.108;2023-04-29T02:18:59;9.50;99.90
3086;DHT22;52812;48.960;9.108;2023-04-29T02:21:24;9.50;99.90
3086;DHT22;52812;48.960;9.108;2023-04-29T02:23:51;9.40;99.90
3086;DHT22;52812;48.960;9.108;2023-04-29T02:26:18;9.30;99.90
3086;DHT22;52812;48.960;9.108;2023-04-29T02:28:44;9.20;99.90
3086;DHT22;52812;48.960;9.108;2023-04-29T02:31:09;9.20;99.90
3086;DHT22;52812;48.960;9.108;2023-04-29T02:33:35;9.20;99.90
3086;DHT22;52812;48.960;9.108;2023-04-29T02:36:01;9.10;99.90
3086;DHT22;52812;48.960;9.108;2023-04-29T02:38:26;9.00;99.90
3086;DHT22;52812;48.960;9.108;2023-04-29T02:40:52;8.90;99.90
3086;DHT22;52812;48.960;9.108;2023-04-29T02:43:17;8.90;99.90
3086;DHT22;52812;48.960;9.108;2023-04-29T02:45:43;9.00;99.90
3086;DHT22;52812;48.960;9.108;2023-04-29T02:48:08;9.00;99.90
3086;DHT22;52812;48.960;9.108;2023-04-29T02:50:34;9.00;99.90
3086;DHT22;52812;48.960;9.108;2023-04-29T02:53:00;8.90;99.90
3086;DHT22;52812;48.960;9.108;2023-04-29T02:55:25;8.80;99.90
3086;DHT22;52812;48.960;9.108;2023-04-29T02:57:51;8.70;99.90
3086;DHT22;52812;48.960;9.108;2023-04-29T03:00:17;8.80;99.90
3086;DHT22;52812;48.960;9.108;2023-04-29T03:02:42;8.80;99.90
3086;DHT22;52812;48.960;9.108;2023-04-29T03:05:08;8.80;99.90
3086;DHT22;52812;48.960;9.108;2023-04-29T03:07:34;8.70;99.90
3086;DHT22;52812;48.960;9.108;2023-04-29T03:09:59;8.50;99.90
3086;DHT22;52812;48.960;9.108;2023-04-29T03:12:26;8.60;99.90
3086;DHT22;52812;48.960;9.108;2023-04-29T03:14:51;8.60;99.90
3086;DHT22;52812;48.960;9.108;2023-04-29T03:17:17;8.60;99.90
3086;DHT22;52812;48.960;9.108;2023-04-29T03:19:43;8.60;99.90
3086;DHT22;52812;48.960;9.108;2023-04-29T03:22:08;8.60;99.90
3086;DHT22;52812;48.960;9.108;2023-04-29T03:27:04;8.40;99.90
3086;DHT22;52812;48.960;9.108;2023-04-29T03:29:30;8.40;99.90
3086;DHT22;52812;48.960;9.108;2023-04-29T03:31:56;8.30;99.90
3086;DHT22;52812;48.960;9.108;2023-04-29T03:34:23;8.30;99.90
3086;DHT22;52812;48.960;9.108;2023-04-29T03:36:49;8.20;99.90
3086;DHT22;52812;48.960;9.108;2023-04-29T03:39:15;8.30;99.90
3086;DHT22;52812;48.960;9.108;2023-04-29T03:41:41;8.30;99.90
3086;DHT22;52812;48.960;9.108;2023-04-29T03:44:07;8.40;99.90
3086;DHT22;52812;48.960;9.108;2023-04-29T03:46:32;8.50;99.90
3086;DHT22;52812;48.960;9.108;2023-04-29T03:48:58;8.50;99.90
3086;DHT22;52812;48.960;9.108;2023-04-29T03:51:24;8.40;99.90
3086;DHT22;52812;48.960;9.108;2023-04-29T03:53:53;8.40;99.90
3086;DHT22;52812;48.960;9.108;2023-04-29T03:56:18;8.30;99.90
3086;DHT22;52812;48.960;9.108;2023-04-29T03:58:44;8.20;99.90
3086;DHT22;52812;48.960;9.108;2023-04-29T04:01:10;8.10;99.90
3086;DHT22;52812;48.960;9.108;2023-04-29T04:03:36;8.20;99.90
3086;DHT22;52812;48.960;9.108;2023-04-29T04:06:02;8.20;99.90
3086;DHT22;52812;48.960;9.108;2023-04-29T04:08:28;8.20;99.90
3086;DHT22;52812;48.960;9.108;2023-04-29T04:10:53;8.20;99.90
3086;DHT22;52812;48.960;9.108;2023-04-29T04:13:19;8.20;99.90
3086;DHT22;52812;48.960;9.108;2023-04-29T04:15:50;8.20;99.90
3086;DHT22;52812;48.960;9.108;2023-04-29T04:18:16;8.20;99.90
3086;DHT22;52812;48.960;9.108;2023-04-29T04:20:42;8.20;99.90
3086;DHT22;52812;48.960;9.108;2023-04-29T04:23:07;8.20;99.90
3086;DHT22;52812;48.960;9.108;2023-04-29T04:25:33;8.20;99.90
3086;DHT22;52812;48.960;9.108;2023-04-29T04:27:58;8.10;99.90
3086;DHT22;52812;48.960;9.108;2023-04-29T04:30:24;8.00;99.90
3086;DHT22;52812;48.960;9.108;2023-04-29T04:32:50;8.20;99.90
3086;DHT22;52812;48.960;9.108;2023-04-29T04:35:15;8.30;99.90
3086;DHT22;52812;48.960;9.108;2023-04-29T04:37:41;8.40;99.90
3086;DHT22;52812;48.960;9.108;2023-04-29T04:40:07;8.50;99.90
3086;DHT22;52812;48.960;9.108;2023-04-29T04:42:33;8.60;99.90
3086;DHT22;52812;48.960;9.108;2023-04-29T04:44:59;8.60;99.90
3086;DHT22;52812;48.960;9.108;2023-04-29T04:47:24;8.80;99.90
3086;DHT22;52812;48.960;9.108;2023-04-29T04:49:50;9.00;99.90
3086;DHT22;52812;48.960;9.108;2023-04-29T04:52:19;9.10;99.90
3086;DHT22;52812;48.960;9.108;2023-04-29T04:54:45;9.10;99.90
3086;DHT22;52812;48.960;9.108;2023-04-29T04:57:11;9.20;99.90
3086;DHT22;52812;48.960;9.108;2023-04-29T04:59:36;9.20;99.90
3086;DHT22;52812;48.960;9.108;2023-04-29T05:02:02;9.40;99.90
3086;DHT22;52812;48.960;9.108;2023-04-29T05:04:27;9.50;99.90
3086;DHT22;52812;48.960;9.108;2023-04-29T05:06:53;9.60;99.90
3086;DHT22;52812;48.960;9.108;2023-04-29T05:09:18;9.60;99.90
3086;DHT22;52812;48.960;9.108;2023-04-29T05:11:44;9.70;99.90
3086;DHT22;52812;48.960;9.108;2023-04-29T05:14:10;9.80;99.90
3086;DHT22;52812;48.960;9.108;2023-04-29T05:16:36;9.90;99.90
3086;DHT22;52812;48.960;9.108;2023-04-29T05:19:02;10.00;99.90
3086;DHT22;52812;48.960;9.108;2023-04-29T05:21:28;10.00;99.90
3086;DHT22;52812;48.960;9.108;2023-04-29T05:23:53;10.20;99.90
3086;DHT22;52812;48.960;9.108;2023-04-29T05:26:19;10.50;99.90
3086;DHT22;52812;48.960;9.108;2023-04-29T05:28:44;10.60;99.90
3086;DHT22;52812;48.960;9.108;2023-04-29T05:31:10;10.70;99.90
3086;DHT22;52812;48.960;9.108;2023-04-29T05:33:35;10.80;99.90
3086;DHT22;52812;48.960;9.108;2023-04-29T05:36:01;11.00;99.90
3086;DHT22;52812;48.960;9.108;2023-04-29T05:38:26;11.10;99.90
3086;DHT22;52812;48.960;9.108;2023-04-29T05:40:54;11.20;99.90
3086;DHT22;52812;48.960;9.108;2023-04-29T05:43:20;11.40;99.90
3086;DHT22;52812;48.960;9.108;2023-04-29T05:45:46;11.60;99.90
3086;DHT22;52812;48.960;9.108;2023-04-29T05:48:11;11.70;99.90
3086;DHT22;52812;48.960;9.108;2023-04-29T05:50:37;12.00;99.90
3086;DHT22;52812;48.960;9.108;2023-04-29T05:53:03;12.20;99.90
3086;DHT22;52812;48.960;9.108;2023-04-29T05:55:29;12.20;99.90
3086;DHT22;52812;48.960;9.108;2023-04-29T05:57:55;12.30;99.90
3086;DHT22;52812;48.960;9.108;2023-04-29T06:00:21;12.40;99.90
3086;DHT22;52812;48.960;9.108;2023-04-29T06:02:46;12.50;99.90
3086;DHT22;52812;48.960;9.108;2023-04-29T06:05:12;12.50;99.90
3086;DHT22;52812;48.960;9.108;2023-04-29T06:07:39;12.60;99.90
3086;DHT22;52812;48.960;9.108;2023-04-29T06:10:06;12.70;99.90
3086;DHT22;52812;48.960;9.108;2023-04-29T06:12:32;12.80;99.90
3086;DHT22;52812;48.960;9.108;2023-04-29T06:14:57;13.10;99.90
3086;DHT22;52812;48.960;9.108;2023-04-29T06:17:23;13.20;99.90
3086;DHT22;52812;48.960;9.108;2023-04-29T06:19:48;13.20;99.90
3086;DHT22;52812;48.960;9.108;2023-04-29T06:22:14;13.30;99.90
3086;DHT22;52812;48.960;9.108;2023-04-29T06:24:39;13.30;99.90
3086;DHT22;52812;48.960;9.108;2023-04-29T06:27:05;13.40;99.90
3086;DHT22;52812;48.960;9.108;2023-04-29T06:29:30;13.40;99.90
3086;DHT22;52812;48.960;9.108;2023-04-29T06:31:56;13.30;99.90
3086;DHT22;52812;48.960;9.108;2023-04-29T06:34:21;13.30;99.90
3086;DHT22;52812;48.960;9.108;2023-04-29T06:36:47;13.30;99.90
3086;DHT22;52812;48.960;9.108;2023-04-29T06:39:12;13.30;99.90
3086;DHT22;52812;48.960;9.108;2023-04-29T06:41:38;13.20;99.90
3086;DHT22;52812;48.960;9.108;2023-04-29T06:44:05;13.20;99.90
3086;DHT22;52812;48.960;9.108;2023-04-29T06:46:30;13.40;99.90
3086;DHT22;52812;48.960;9.108;2023-04-29T06:48:56;13.40;99.90
3086;DHT22;52812;48.960;9.108;2023-04-29T06:51:21;13.50;99.90
3086;DHT22;52812;48.960;9.108;2023-04-29T06:53:47;13.80;99.90
3086;DHT22;52812;48.960;9.108;2023-04-29T06:56:12;13.90;99.90
3086;DHT22;52812;48.960;9.108;2023-04-29T06:58:38;14.00;99.90
3086;DHT22;52812;48.960;9.108;2023-04-29T07:01:04;13.90;99.90
3086;DHT22;52812;48.960;9.108;2023-04-29T07:03:31;13.80;99.90
3086;DHT22;52812;48.960;9.108;2023-04-29T07:05:57;13.70;99.90
3086;DHT22;52812;48.960;9.108;2023-04-29T07:08:22;13.70;99.90
3086;DHT22;52812;48.960;9.108;2023-04-29T07:10:55;13.60;99.90
3086;DHT22;52812;48.960;9.108;2023-04-29T07:13:21;13.70;99.90
3086;DHT22;52812;48.960;9.108;2023-04-29T07:15:46;13.70;99.90
3086;DHT22;52812;48.960;9.108;2023-04-29T07:18:12;13.60;99.90
3086;DHT22;52812;48.960;9.108;2023-04-29T07:20:38;13.60;99.90
3086;DHT22;52812;48.960;9.108;2023-04-29T07:23:03;13.50;99.90
3086;DHT22;52812;48.960;9.108;2023-04-29T07:25:29;13.50;99.90
3086;DHT22;52812;48.960;9.108;2023-04-29T07:27:55;13.50;99.90
3086;DHT22;52812;48.960;9.108;2023-04-29T07:30:21;13.60;99.90
3086;DHT22;52812;48.960;9.108;2023-04-29T07:32:47;13.60;99.90
3086;DHT22;52812;48.960;9.108;2023-04-29T07:35:13;13.80;99.90
3086;DHT22;52812;48.960;9.108;2023-04-29T07:37:39;14.00;99.90
3086;DHT22;52812;48.960;9.108;2023-04-29T07:40:06;14.10;99.90
3086;DHT22;52812;48.960;9.108;2023-04-29T07:42:32;14.10;99.90
3086;DHT22;52812;48.960;9.108;2023-04-29T07:44:57;14.00;99.90
3086;DHT22;52812;48.960;9.108;2023-04-29T07:47:23;13.90;99.90
3086;DHT22;52812;48.960;9.108;2023-04-29T07:49:48;13.90;99.90
3086;DHT22;52812;48.960;9.108;2023-04-29T07:52:14;14.10;99.90
3086;DHT22;52812;48.960;9.108;2023-04-29T07:54:39;14.10;99.90
3086;DHT22;52812;48.960;9.108;2023-04-29T07:57:05;14.30;99.90
3086;DHT22;52812;48.960;9.108;2023-04-29T07:59:31;14.20;99.90
3086;DHT22;52812;48.960;9.108;2023-04-29T08:01:57;14.30;99.90
3086;DHT22;52812;48.960;9.108;2023-04-29T08:04:23;14.40;99.90
3086;DHT22;52812;48.960;9.108;2023-04-29T08:06:48;14.50;99.90
3086;DHT22;52812;48.960;9.108;2023-04-29T08:09:14;14.70;99.90
3086;DHT22;52812;48.960;9.108;2023-04-29T08:11:40;14.70;99.90
3086;DHT22;52812;48.960;9.108;2023-04-29T08:14:06;14.60;99.90
3086;DHT22;52812;48.960;9.108;2023-04-29T08:16:32;14.60;99.90
3086;DHT22;52812;48.960;9.108;2023-04-29T08:18:57;14.60;99.90
3086;DHT22;52812;48.960;9.108;2023-04-29T08:21:23;14.70;99.90
3086;DHT22;52812;48.960;9.108;2023-04-29T08:23:48;14.70;99.90
3086;DHT22;52812;48.960;9.108;2023-04-29T08:26:14;14.70;99.90
3086;DHT22;52812;48.960;9.108;2023-04-29T08:28:39;14.80;99.90
3086;DHT22;52812;48.960;9.108;2023-04-29T08:31:05;15.20;99.90
3086;DHT22;52812;48.960;9.108;2023-04-29T08:33:35;15.50;99.90
3086;DHT22;52812;48.960;9.108;2023-04-29T08:36:02;15.80;99.90
3086;DHT22;52812;48.960;9.108;2023-04-29T08:38:31;15.80;99.90
3086;DHT22;52812;48.960;9.108;2023-04-29T08:40:57;15.60;99.90
3086;DHT22;52812;48.960;9.108;2023-04-29T08:43:22;15.50;99.90
3086;DHT22;52812;48.960;9.108;2023-04-29T08:45:48;15.60;99.90
3086;DHT22;52812;48.960;9.108;2023-04-29T08:48:17;16.10;99.90
3086;DHT22;52812;48.960;9.108;2023-04-29T08:50:44;16.30;99.90
3086;DHT22;52812;48.960;9.108;2023-04-29T08:53:12;16.40;99.90
3086;DHT22;52812;48.960;9.108;2023-04-29T08:58:07;16.20;99.90
3086;DHT22;52812;48.960;9.108;2023-04-29T09:00:37;16.10;99.90
3086;DHT22;52812;48.960;9.108;2023-04-29T09:03:13;16.00;99.90
3086;DHT22;52812;48.960;9.108;2023-04-29T09:05:42;15.60;99.90
3086;DHT22;52812;48.960;9.108;2023-04-29T09:08:10;15.40;99.90
3086;DHT22;52812;48.960;9.108;2023-04-29T09:10:38;15.60;99.90
3086;DHT22;52812;48.960;9.108;2023-04-29T09:13:06;15.70;99.90
3086;DHT22;52812;48.960;9.108;2023-04-29T09:15:36;15.60;99.90
3086;DHT22;52812;48.960;9.108;2023-04-29T09:18:02;15.40;99.90
3086;DHT22;52812;48.960;9.108;2023-04-29T09:20:28;15.20;99.90
3086;DHT22;52812;48.960;9.108;2023-04-29T09:23:02;14.80;99.90
3086;DHT22;52812;48.960;9.108;2023-04-29T09:25:28;14.60;99.90
3086;DHT22;52812;48.960;9.108;2023-04-29T09:27:55;14.40;99.90
3086;DHT22;52812;48.960;9.108;2023-04-29T09:30:21;14.50;99.90
3086;DHT22;52812;48.960;9.108;2023-04-29T09:33:07;14.70;99.90
3086;DHT22;52812;48.960;9.108;2023-04-29T09:35:33;14.90;99.90
3086;DHT22;52812;48.960;9.108;2023-04-29T09:38:13;15.10;99.90
3086;DHT22;52812;48.960;9.108;2023-04-29T09:40:41;15.40;99.90
3086;DHT22;52812;48.960;9.108;2023-04-29T09:43:14;15.50;99.90
3086;DHT22;52812;48.960;9.108;2023-04-29T09:45:45;15.70;99.90
3086;DHT22;52812;48.960;9.108;2023-04-29T09:48:12;15.50;99.90
3086;DHT22;52812;48.960;9.108;2023-04-29T09:50:39;15.40;99.90
3086;DHT22;52812;48.960;9.108;2023-04-29T09:53:07;15.20;99.90
3086;DHT22;52812;48.960;9.108;2023-04-29T09:58:28;14.90;99.90
3086;DHT22;52812;48.960;9.108;2023-04-29T10:00:58;14.80;99.90
3086;DHT22;52812;48.960;9.108;2023-04-29T10:03:26;14.70;99.90
3086;DHT22;52812;48.960;9.108;2023-04-29T10:05:54;14.80;99.90
3086;DHT22;52812;48.960;9.108;2023-04-29T10:08:20;14.90;99.90
3086;DHT22;52812;48.960;9.108;2023-04-29T10:10:46;15.00;99.90
3086;DHT22;52812;48.960;9.108;2023-04-29T10:13:13;15.20;99.90
3086;DHT22;52812;48.960;9.108;2023-04-29T10:15:46;15.40;99.90
3086;DHT22;52812;48.960;9.108;2023-04-29T10:18:20;15.60;99.90
3086;DHT22;52812;48.960;9.108;2023-04-29T10:20:51;15.70;99.90
3086;DHT22;52812;48.960;9.108;2023-04-29T10:23:19;15.70;99.90
3086;DHT22;52812;48.960;9.108;2023-04-29T10:25:46;15.40;99.90
3086;DHT22;52812;48.960;9.108;2023-04-29T10:28:14;15.20;99.90
3086;DHT22;52812;48.960;9.108;2023-04-29T10:30:45;14.90;99.90
3086;DHT22;52812;48.960;9.108;2023-04-29T10:33:15;14.60;99.90
3086;DHT22;52812;48.960;9.108;2023-04-29T10:35:42;14.30;99.90
3086;DHT22;52812;48.960;9.108;2023-04-29T10:40:52;14.00;99.90
3086;DHT22;52812;48.960;9.108;2023-04-29T10:43:23;13.90;99.90
3086;DHT22;52812;48.960;9.108;2023-04-29T10:45:48;13.70;99.90
3086;DHT22;52812;48.960;9.108;2023-04-29T10:48:14;13.60;99.90
3086;DHT22;52812;48.960;9.108;2023-04-29T10:53:21;13.70;99.90
3086;DHT22;52812;48.960;9.108;2023-04-29T10:55:49;13.90;99.90
3086;DHT22;52812;48.960;9.108;2023-04-29T11:01:02;14.00;99.90
3086;DHT22;52812;48.960;9.108;2023-04-29T11:06:40;14.20;99.90
3086;DHT22;52812;48.960;9.108;2023-04-29T11:09:10;14.30;99.90
3086;DHT22;52812;48.960;9.108;2023-04-29T11:11:46;14.40;99.90
3086;DHT22;52812;48.960;9.108;2023-04-29T11:14:14;14.50;99.90
3086;DHT22;52812;48.960;9.108;2023-04-29T11:16:51;14.70;99.90
3086;DHT22;52812;48.960;9.108;2023-04-29T11:19:17;14.60;99.90
3086;DHT22;52812;48.960;9.108;2023-04-29T11:21:44;14.80;99.90
3086;DHT22;52812;48.960;9.108;2023-04-29T11:24:11;14.90;99.90
3086;DHT22;52812;48.960;9.108;2023-04-29T11:26:37;14.90;99.90
3086;DHT22;52812;48.960;9.108;2023-04-29T11:29:07;14.80;99.90
3086;DHT22;52812;48.960;9.108;2023-04-29T11:31:36;14.50;99.90
3086;DHT22;52812;48.960;9.108;2023-04-29T11:34:04;14.80;99.90
3086;DHT22;52812;48.960;9.108;2023-04-29T11:36:31;14.90;99.90
3086;DHT22;52812;48.960;9.108;2023-04-29T11:38:59;14.90;99.90
3086;DHT22;52812;48.960;9.108;2023-04-29T11:41:26;15.00;99.90
3086;DHT22;52812;48.960;9.108;2023-04-29T11:43:58;14.90;99.90
3086;DHT22;52812;48.960;9.108;2023-04-29T11:46:25;14.60;99.90
3086;DHT22;52812;48.960;9.108;2023-04-29T11:48:56;14.50;99.90
3086;DHT22;52812;48.960;9.108;2023-04-29T11:51:23;14.50;99.90
3086;DHT22;52812;48.960;9.108;2023-04-29T11:53:50;14.60;99.90
3086;DHT22;52812;48.960;9.108;2023-04-29T11:56:15;14.80;99.90
3086;DHT22;52812;48.960;9.108;2023-04-29T11:58:41;14.80;99.90
3086;DHT22;52812;48.960;9.108;2023-04-29T12:01:08;14.90;99.90
3086;DHT22;52812;48.960;9.108;2023-04-29T12:03:33;15.10;99.90
3086;DHT22;52812;48.960;9.108;2023-04-29T12:06:01;15.30;99.90
3086;DHT22;52812;48.960;9.108;2023-04-29T12:08:28;15.40;99.90
3086;DHT22;52812;48.960;9.108;2023-04-29T12:10:56;15.60;99.90
3086;DHT22;52812;48.960;9.108;2023-04-29T12:13:23;15.80;99.90
3086;DHT22;52812;48.960;9.108;2023-04-29T12:15:50;15.90;99.90
3086;DHT22;52812;48.960;9.108;2023-04-29T12:18:17;15.90;99.90
3086;DHT22;52812;48.960;9.108;2023-04-29T12:20:44;16.00;99.90
3086;DHT22;52812;48.960;9.108;2023-04-29T12:25:36;15.80;99.90
3086;DHT22;52812;48.960;9.108;2023-04-29T12:28:02;15.60;99.90
3086;DHT22;52812;48.960;9.108;2023-04-29T12:30:28;15.30;99.90
3086;DHT22;52812;48.960;9.108;2023-04-29T12:32:54;15.30;99.90
3086;DHT22;52812;48.960;9.108;2023-04-29T12:35:20;15.20;99.90
3086;DHT22;52812;48.960;9.108;2023-04-29T12:37:49;15.50;99.90
3086;DHT22;52812;48.960;9.108;2023-04-29T12:40:16;15.40;99.90
3086;DHT22;52812;48.960;9.108;2023-04-29T12:42:42;15.50;99.90
3086;DHT22;52812;48.960;9.108;2023-04-29T12:45:30;15.60;99.90
3086;DHT22;52812;48.960;9.108;2023-04-29T12:47:57;15.60;99.90
3086;DHT22;52812;48.960;9.108;2023-04-29T12:50:38;15.30;99.90
3086;DHT22;52812;48.960;9.108;2023-04-29T12:53:06;15.40;99.90
3086;DHT22;52812;48.960;9.108;2023-04-29T12:55:36;15.60;99.90
3086;DHT22;52812;48.960;9.108;2023-04-29T12:58:03;15.50;99.90
3086;DHT22;52812;48.960;9.108;2023-04-29T13:00:29;15.30;99.90
3086;DHT22;52812;48.960;9.108;2023-04-29T13:02:55;15.30;99.90
3086;DHT22;52812;48.960;9.108;2023-04-29T13:05:21;15.50;99.90
3086;DHT22;52812;48.960;9.108;2023-04-29T13:07:47;15.60;99.90
3086;DHT22;52812;48.960;9.108;2023-04-29T13:10:13;15.70;99.90
3086;DHT22;52812;48.960;9.108;2023-04-29T13:12:39;15.40;99.90
3086;DHT22;52812;48.960;9.108;2023-04-29T13:15:06;15.30;99.90
3086;DHT22;52812;48.960;9.108;2023-04-29T13:17:34;15.40;99.90
3086;DHT22;52812;48.960;9.108;2023-04-29T13:19:59;15.50;99.90
3086;DHT22;52812;48.960;9.108;2023-04-29T13:22:25;15.40;99.90
3086;DHT22;52812;48.960;9.108;2023-04-29T13:24:51;15.30;99.90
3086;DHT22;52812;48.960;9.108;2023-04-29T13:27:16;15.40;99.90
3086;DHT22;52812;48.960;9.108;2023-04-29T13:29:42;15.50;99.90
3086;DHT22;52812;48.960;9.108;2023-04-29T13:32:08;15.70;99.90
3086;DHT22;52812;48.960;9.108;2023-04-29T13:34:33;15.70;99.90
3086;DHT22;52812;48.960;9.108;2023-04-29T13:36:59;15.80;99.90
3086;DHT22;52812;48.960;9.108;2023-04-29T13:39:24;15.60;99.90
3086;DHT22;52812;48.960;9.108;2023-04-29T13:41:50;15.60;99.90
3086;DHT22;52812;48.960;9.108;2023-04-29T13:44:16;15.70;99.90
3086;DHT22;52812;48.960;9.108;2023-04-29T13:46:41;15.70;99.90
3086;DHT22;52812;48.960;9.108;2023-04-29T13:49:07;15.70;99.90
3086;DHT22;52812;48.960;9.108;2023-04-29T13:51:32;16.00;99.90
3086;DHT22;52812;48.960;9.108;2023-04-29T13:53:58;16.30;99.90
3086;DHT22;52812;48.960;9.108;2023-04-29T13:56:23;16.10;99.90
3086;DHT22;52812;48.960;9.108;2023-04-29T13:58:50;16.00;99.90
3086;DHT22;52812;48.960;9.108;2023-04-29T14:01:16;16.10;99.90
3086;DHT22;52812;48.960;9.108;2023-04-29T14:03:41;16.50;99.90
3086;DHT22;52812;48.960;9.108;2023-04-29T14:06:07;16.40;99.90
3086;DHT22;52812;48.960;9.108;2023-04-29T14:08:33;16.20;99.90
3086;DHT22;52812;48.960;9.108;2023-04-29T14:10:59;16.20;99.90
3086;DHT22;52812;48.960;9.108;2023-04-29T14:13:25;16.30;99.90
3086;DHT22;52812;48.960;9.108;2023-04-29T14:15:50;16.00;99.90
3086;DHT22;52812;48.960;9.108;2023-04-29T14:18:16;16.10;99.90
3086;DHT22;52812;48.960;9.108;2023-04-29T14:20:41;16.00;99.90
3086;DHT22;52812;48.960;9.108;2023-04-29T14:23:07;15.90;99.90
3086;DHT22;52812;48.960;9.108;2023-04-29T14:25:32;15.90;99.90
3086;DHT22;52812;48.960;9.108;2023-04-29T14:27:58;15.90;99.90
3086;DHT22;52812;48.960;9.108;2023-04-29T14:30:23;16.00;99.90
3086;DHT22;52812;48.960;9.108;2023-04-29T14:32:49;16.10;99.90
3086;DHT22;52812;48.960;9.108;2023-04-29T14:35:15;16.10;99.90
3086;DHT22;52812;48.960;9.108;2023-04-29T14:37:40;16.00;99.90
3086;DHT22;52812;48.960;9.108;2023-04-29T14:40:07;16.00;99.90
3086;DHT22;52812;48.960;9.108;2023-04-29T14:42:33;16.10;99.90
3086;DHT22;52812;48.960;9.108;2023-04-29T14:44:59;15.90;99.90
3086;DHT22;52812;48.960;9.108;2023-04-29T14:47:24;15.90;99.90
3086;DHT22;52812;48.960;9.108;2023-04-29T14:49:50;15.60;99.90
3086;DHT22;52812;48.960;9.108;2023-04-29T14:52:15;15.50;99.90
3086;DHT22;52812;48.960;9.108;2023-04-29T14:54:41;15.60;99.90
3086;DHT22;52812;48.960;9.108;2023-04-29T14:57:06;15.60;99.90
3086;DHT22;52812;48.960;9.108;2023-04-29T14:59:32;15.50;99.90
3086;DHT22;52812;48.960;9.108;2023-04-29T15:01:57;15.30;99.90
3086;DHT22;52812;48.960;9.108;2023-04-29T15:04:23;15.40;99.90
3086;DHT22;52812;48.960;9.108;2023-04-29T15:06:49;15.40;99.90
3086;DHT22;52812;48.960;9.108;2023-04-29T15:09:15;15.40;99.90
3086;DHT22;52812;48.960;9.108;2023-04-29T15:11:41;15.50;99.90
3086;DHT22;52812;48.960;9.108;2023-04-29T15:14:07;15.50;99.90
3086;DHT22;52812;48.960;9.108;2023-04-29T15:16:33;15.40;99.90
3086;DHT22;52812;48.960;9.108;2023-04-29T15:18:59;15.30;99.90
3086;DHT22;52812;48.960;9.108;2023-04-29T15:21:25;15.40;99.90
3086;DHT22;52812;48.960;9.108;2023-04-29T15:23:51;15.40;99.90
3086;DHT22;52812;48.960;9.108;2023-04-29T15:26:17;15.30;99.90
3086;DHT22;52812;48.960;9.108;2023-04-29T15:28:43;15.30;99.90
3086;DHT22;52812;48.960;9.108;2023-04-29T15:31:10;15.20;99.90
3086;DHT22;52812;48.960;9.108;2023-04-29T15:33:36;15.20;99.90
3086;DHT22;52812;48.960;9.108;2023-04-29T15:36:01;15.10;99.90
3086;DHT22;52812;48.960;9.108;2023-04-29T15:38:27;15.10;99.90
3086;DHT22;52812;48.960;9.108;2023-04-29T15:40:54;15.10;99.90
3086;DHT22;52812;48.960;9.108;2023-04-29T15:43:25;15.10;99.90
3086;DHT22;52812;48.960;9.108;2023-04-29T15:45:51;15.20;99.90
